Time,TemperatureF,DewpointF,PressureIn,WindDirection,WindDirectionDegrees,WindSpeedMPH,WindSpeedGustMPH,Humidity,HourlyPrecipIn,Conditions,Clouds,dailyrainin,SoftwareType,DateUTC
2013-10-16 00:06:00,54.9,54.3,30.14,WNW,292,0.0,-999.0,98,-99.99,,,0.00,Acu-Link.com,2013-10-16 04:06:00,
2013-10-16 00:21:00,54.7,54.1,30.14,WNW,292,0.0,-999.0,98,-99.99,,,0.00,Acu-Link.com,2013-10-16 04:21:00,
2013-10-16 00:36:00,54.3,53.7,30.14,WNW,292,0.0,-999.0,98,-99.99,,,0.00,Acu-Link.com,2013-10-16 04:36:00,
2013-10-16 00:52:00,54.1,53.5,30.14,WNW,292,0.0,-999.0,98,-99.99,,,0.00,Acu-Link.com,2013-10-16 04:52:00,
2013-10-16 01:07:00,54.1,53.5,30.13,WNW,292,0.0,-999.0,98,-99.99,,,0.00,Acu-Link.com,2013-10-16 05:07:00,
2013-10-16 01:22:00,54.1,53.5,30.13,WNW,292,0.0,-999.0,98,-99.99,,,0.00,Acu-Link.com,2013-10-16 05:22:00,
2013-10-16 01:37:00,54.1,53.5,30.14,WNW,292,0.0,-999.0,98,-99.99,,,0.00,Acu-Link.com,2013-10-16 05:37:00,
2013-10-16 01:52:00,54.1,53.5,30.13,WNW,292,0.0,-999.0,98,-99.99,,,0.00,Acu-Link.com,2013-10-16 05:52:00,
2013-10-16 02:07:00,54.1,53.5,30.13,WNW,292,0.0,-999.0,98,-99.99,,,0.00,Acu-Link.com,2013-10-16 06:07:00,
2013-10-16 02:23:00,54.1,53.5,30.13,WNW,292,0.0,-999.0,98,-99.99,,,0.00,Acu-Link.com,2013-10-16 06:23:00,
2013-10-16 02:38:00,54.1,53.5,30.13,WNW,292,0.0,-999.0,98,-99.99,,,0.00,Acu-Link.com,2013-10-16 06:38:00,
2013-10-16 02:53:00,54.0,53.4,30.12,WNW,292,0.0,-999.0,98,-99.99,,,0.00,Acu-Link.com,2013-10-16 06:53:00,
2013-10-16 03:08:00,54.0,53.4,30.12,WNW,292,0.0,-999.0,98,-99.99,,,0.00,Acu-Link.com,2013-10-16 07:08:00,
2013-10-16 03:23:00,54.0,53.4,30.12,WNW,292,0.0,-999.0,98,-99.99,,,0.00,Acu-Link.com,2013-10-16 07:23:00,
2013-10-16 03:39:00,54.0,53.4,30.12,WNW,292,0.0,-999.0,98,-99.99,,,0.00,Acu-Link.com,2013-10-16 07:39:00,
2013-10-16 03:54:00,53.8,53.2,30.12,WNW,292,0.0,-999.0,98,-99.99,,,0.00,Acu-Link.com,2013-10-16 07:54:00,
2013-10-16 04:09:00,53.8,53.2,30.11,WNW,292,0.0,-999.0,98,-99.99,,,0.00,Acu-Link.com,2013-10-16 08:09:00,
2013-10-16 04:25:00,53.8,53.2,30.12,WNW,292,0.0,-999.0,98,-99.99,,,0.00,Acu-Link.com,2013-10-16 08:25:00,
2013-10-16 04:40:00,53.8,53.2,30.12,WNW,292,0.0,-999.0,98,-99.99,,,0.00,Acu-Link.com,2013-10-16 08:40:00,
2013-10-16 04:55:00,53.8,53.2,30.11,WNW,292,0.0,-999.0,98,-99.99,,,0.00,Acu-Link.com,2013-10-16 08:55:00,
2013-10-16 05:11:00,53.8,53.2,30.12,WNW,292,0.0,-999.0,98,-99.99,,,0.00,Acu-Link.com,2013-10-16 09:11:00,
2013-10-16 05:26:00,53.8,53.2,30.11,WNW,292,0.0,-999.0,98,-99.99,,,0.00,Acu-Link.com,2013-10-16 09:26:00,
2013-10-16 05:41:00,53.8,53.2,30.11,WNW,292,0.0,-999.0,98,-99.99,,,0.00,Acu-Link.com,2013-10-16 09:41:00,
2013-10-16 05:57:00,53.8,53.2,30.10,WNW,292,0.0,-999.0,98,-99.99,,,0.00,Acu-Link.com,2013-10-16 09:57:00,
2013-10-16 06:12:00,53.8,53.2,30.10,WNW,292,0.0,-999.0,98,-99.99,,,0.00,Acu-Link.com,2013-10-16 10:12:00,
2013-10-16 06:27:00,53.8,53.2,30.10,WNW,292,0.0,-999.0,98,-99.99,,,0.00,Acu-Link.com,2013-10-16 10:27:00,
2013-10-16 06:42:00,53.8,53.2,30.11,WNW,292,0.0,-999.0,98,-99.99,,,0.00,Acu-Link.com,2013-10-16 10:42:00,
2013-10-16 06:58:00,53.6,53.0,30.10,WNW,292,0.0,-999.0,98,-99.99,,,0.00,Acu-Link.com,2013-10-16 10:58:00,
2013-10-16 07:13:00,53.6,53.0,30.11,WNW,292,0.0,-999.0,98,-99.99,,,0.00,Acu-Link.com,2013-10-16 11:13:00,
2013-10-16 07:28:00,53.6,53.0,30.10,WNW,292,0.0,-999.0,98,-99.99,,,0.00,Acu-Link.com,2013-10-16 11:28:00,
2013-10-16 07:43:00,53.6,53.0,30.09,WNW,292,0.0,-999.0,98,-99.99,,,0.00,Acu-Link.com,2013-10-16 11:43:00,
2013-10-16 07:59:00,53.6,53.0,30.10,WNW,292,0.0,-999.0,98,-99.99,,,0.00,Acu-Link.com,2013-10-16 11:59:00,
2013-10-16 08:14:00,53.6,53.0,30.09,WNW,292,0.0,-999.0,98,-99.99,,,0.00,Acu-Link.com,2013-10-16 12:14:00,
2013-10-16 08:29:00,53.6,53.0,30.09,WNW,292,0.0,-999.0,98,-99.99,,,0.00,Acu-Link.com,2013-10-16 12:29:00,
2013-10-16 08:44:00,53.8,53.2,30.09,WNW,292,0.0,-999.0,98,-99.99,,,0.00,Acu-Link.com,2013-10-16 12:44:00,
2013-10-16 08:59:00,54.1,53.5,30.09,WNW,292,0.0,-999.0,98,-99.99,,,0.00,Acu-Link.com,2013-10-16 12:59:00,
2013-10-16 09:15:00,54.5,53.9,30.09,WNW,292,0.0,-999.0,98,-99.99,,,0.00,Acu-Link.com,2013-10-16 13:15:00,
2013-10-16 09:30:00,54.9,54.3,30.09,NW,315,0.0,-999.0,98,-99.99,,,0.00,Acu-Link.com,2013-10-16 13:30:00,
2013-10-16 09:45:00,55.2,54.6,30.08,West,270,0.0,-999.0,98,-99.99,,,0.00,Acu-Link.com,2013-10-16 13:45:00,
2013-10-16 10:00:00,55.6,55.0,30.08,NE,45,0.0,-999.0,98,-99.99,,,0.00,Acu-Link.com,2013-10-16 14:00:00,
2013-10-16 10:16:00,56.1,55.5,30.07,North,0,0.0,-999.0,98,-99.99,,,0.00,Acu-Link.com,2013-10-16 14:16:00,
2013-10-16 10:31:00,56.3,55.7,30.07,North,0,0.0,-999.0,98,-99.99,,,0.00,Acu-Link.com,2013-10-16 14:31:00,
2013-10-16 10:46:00,56.5,55.9,30.07,North,0,0.0,-999.0,98,-99.99,,,0.00,Acu-Link.com,2013-10-16 14:46:00,
2013-10-16 11:01:00,57.2,56.6,30.06,WNW,292,0.0,-999.0,98,-99.99,,,0.00,Acu-Link.com,2013-10-16 15:01:00,
2013-10-16 11:17:00,57.2,56.6,30.06,NNE,22,0.0,-999.0,98,-99.99,,,0.00,Acu-Link.com,2013-10-16 15:17:00,
2013-10-16 11:32:00,56.7,56.1,30.05,NNE,22,0.0,-999.0,98,-99.99,,,0.00,Acu-Link.com,2013-10-16 15:32:00,
2013-10-16 11:47:00,56.3,55.7,30.05,NW,315,0.0,-999.0,98,-99.99,,,0.00,Acu-Link.com,2013-10-16 15:47:00,
2013-10-16 12:02:00,56.3,55.7,30.04,WNW,292,0.0,-999.0,98,-99.99,,,0.00,Acu-Link.com,2013-10-16 16:02:00,
2013-10-16 12:17:00,56.3,55.7,30.04,East,90,0.0,-999.0,98,-99.99,,,0.00,Acu-Link.com,2013-10-16 16:17:00,
2013-10-16 12:33:00,56.3,55.7,30.03,ESE,112,0.0,-999.0,98,-99.99,,,0.00,Acu-Link.com,2013-10-16 16:33:00,
2013-10-16 12:48:00,55.9,55.3,30.02,NNW,337,0.0,-999.0,98,-99.99,,,0.00,Acu-Link.com,2013-10-16 16:48:00,
2013-10-16 13:03:00,55.9,55.3,30.02,NNE,22,0.0,-999.0,98,-99.99,,,0.00,Acu-Link.com,2013-10-16 17:03:00,
2013-10-16 13:18:00,56.5,55.9,30.02,ESE,112,0.0,-999.0,98,-99.99,,,0.00,Acu-Link.com,2013-10-16 17:18:00,
2013-10-16 13:34:00,56.7,56.1,30.01,WNW,292,0.0,-999.0,98,-99.99,,,0.00,Acu-Link.com,2013-10-16 17:34:00,
2013-10-16 13:49:00,56.8,56.2,30.00,North,0,0.0,-999.0,98,-99.99,,,0.00,Acu-Link.com,2013-10-16 17:49:00,
2013-10-16 14:04:00,57.7,57.1,30.00,North,0,0.0,-999.0,98,-99.99,,,0.00,Acu-Link.com,2013-10-16 18:04:00,
2013-10-16 14:19:00,58.1,57.5,29.98,West,270,0.0,-999.0,98,-99.99,,,0.00,Acu-Link.com,2013-10-16 18:19:00,
2013-10-16 14:35:00,58.6,58.0,29.98,NW,315,0.0,-999.0,98,-99.99,,,0.00,Acu-Link.com,2013-10-16 18:35:00,
2013-10-16 14:50:00,59.2,58.6,29.98,NW,315,0.0,-999.0,98,-99.99,,,0.00,Acu-Link.com,2013-10-16 18:50:00,
2013-10-16 15:05:00,58.8,58.2,29.98,NW,315,0.0,-999.0,98,-99.99,,,0.00,Acu-Link.com,2013-10-16 19:05:00,
2013-10-16 15:20:00,59.0,58.4,29.98,WSW,247,0.0,-999.0,98,-99.99,,,0.00,Acu-Link.com,2013-10-16 19:20:00,
2013-10-16 15:36:00,59.2,58.6,29.97,NNW,337,0.0,-999.0,98,-99.99,,,0.00,Acu-Link.com,2013-10-16 19:36:00,
2013-10-16 15:51:00,59.2,58.6,29.96,NNW,337,0.0,-999.0,98,-99.99,,,0.00,Acu-Link.com,2013-10-16 19:51:00,
2013-10-16 16:06:00,59.0,58.4,29.96,SW,225,0.0,-999.0,98,-99.99,,,0.00,Acu-Link.com,2013-10-16 20:06:00,
2013-10-16 16:21:00,58.8,58.2,29.96,West,270,0.0,-999.0,98,-99.99,,,0.00,Acu-Link.com,2013-10-16 20:21:00,
2013-10-16 16:37:00,58.5,57.9,29.95,West,270,0.0,-999.0,98,-99.99,,,0.00,Acu-Link.com,2013-10-16 20:37:00,
2013-10-16 16:52:00,58.3,57.7,29.95,West,270,0.0,-999.0,98,-99.99,,,0.00,Acu-Link.com,2013-10-16 20:52:00,
2013-10-16 17:07:00,57.6,57.0,29.95,WNW,292,0.0,-999.0,98,-99.99,,,0.00,Acu-Link.com,2013-10-16 21:07:00,
2013-10-16 17:22:00,56.5,55.9,29.94,WNW,292,0.0,-999.0,98,-99.99,,,0.00,Acu-Link.com,2013-10-16 21:22:00,
2013-10-16 17:37:00,55.4,54.8,29.93,WNW,292,0.0,-999.0,98,-99.99,,,0.00,Acu-Link.com,2013-10-16 21:37:00,
2013-10-16 17:53:00,54.7,54.1,29.93,WNW,292,0.0,-999.0,98,-99.99,,,0.00,Acu-Link.com,2013-10-16 21:53:00,
2013-10-16 18:08:00,54.0,53.4,29.93,WNW,292,0.0,-999.0,98,-99.99,,,0.00,Acu-Link.com,2013-10-16 22:08:00,
2013-10-16 18:23:00,53.4,52.8,29.92,WNW,292,0.0,-999.0,98,-99.99,,,0.00,Acu-Link.com,2013-10-16 22:23:00,
2013-10-16 18:38:00,52.7,52.2,29.93,WNW,292,0.0,-999.0,98,-99.99,,,0.00,Acu-Link.com,2013-10-16 22:38:00,
2013-10-16 18:54:00,52.2,51.7,29.93,WNW,292,0.0,-999.0,98,-99.99,,,0.00,Acu-Link.com,2013-10-16 22:54:00,
2013-10-16 19:09:00,51.6,51.1,29.93,WNW,292,0.0,-999.0,98,-99.99,,,0.00,Acu-Link.com,2013-10-16 23:09:00,
2013-10-16 19:24:00,50.9,50.4,29.94,WNW,292,0.0,-999.0,98,-99.99,,,0.00,Acu-Link.com,2013-10-16 23:24:00,
2013-10-16 19:39:00,50.5,50.0,29.93,WNW,292,0.0,-999.0,98,-99.99,,,0.00,Acu-Link.com,2013-10-16 23:39:00,
2013-10-16 19:54:00,50.5,50.0,29.91,WNW,292,0.0,-999.0,98,-99.99,,,0.00,Acu-Link.com,2013-10-16 23:54:00,
2013-10-16 20:10:00,50.5,50.0,29.91,WNW,292,0.0,-999.0,98,-99.99,,,0.00,Acu-Link.com,2013-10-17 00:10:00,
2013-10-16 20:25:00,50.5,50.0,29.92,WNW,292,0.0,-999.0,98,-99.99,,,0.00,Acu-Link.com,2013-10-17 00:25:00,
2013-10-16 20:40:00,50.5,50.0,29.91,WNW,292,0.0,-999.0,98,-99.99,,,0.00,Acu-Link.com,2013-10-17 00:40:00,
2013-10-16 20:55:00,50.5,50.0,29.91,WNW,292,0.0,-999.0,98,-99.99,,,0.00,Acu-Link.com,2013-10-17 00:55:00,
2013-10-16 21:10:00,50.4,49.9,29.90,WNW,292,0.0,-999.0,98,-99.99,,,0.00,Acu-Link.com,2013-10-17 01:10:00,
2013-10-16 21:26:00,50.2,49.7,29.89,WNW,292,0.0,-999.0,98,-99.99,,,0.00,Acu-Link.com,2013-10-17 01:26:00,
2013-10-16 21:41:00,50.0,49.5,29.89,WNW,292,0.0,-999.0,98,-99.99,,,0.00,Acu-Link.com,2013-10-17 01:41:00,
2013-10-16 21:56:00,49.5,49.0,29.89,WNW,292,0.0,-999.0,98,-99.99,,,0.00,Acu-Link.com,2013-10-17 01:56:00,
2013-10-16 22:12:00,48.9,48.4,29.88,WNW,292,0.0,-999.0,98,-99.99,,,0.00,Acu-Link.com,2013-10-17 02:12:00,
2013-10-16 22:27:00,48.4,47.9,29.89,WNW,292,0.0,-999.0,98,-99.99,,,0.00,Acu-Link.com,2013-10-17 02:27:00,
2013-10-16 22:42:00,47.8,47.3,29.88,WNW,292,0.0,-999.0,98,-99.99,,,0.00,Acu-Link.com,2013-10-17 02:42:00,
2013-10-16 22:57:00,47.3,46.8,29.87,WNW,292,0.0,-999.0,98,-99.99,,,0.00,Acu-Link.com,2013-10-17 02:57:00,
2013-10-16 23:12:00,46.9,46.4,29.85,WNW,292,0.0,-999.0,98,-99.99,,,0.00,Acu-Link.com,2013-10-17 03:12:00,
2013-10-16 23:28:00,46.8,46.3,29.86,WNW,292,0.0,-999.0,98,-99.99,,,0.00,Acu-Link.com,2013-10-17 03:28:00,
2013-10-16 23:43:00,46.6,46.1,29.86,WNW,292,0.0,-999.0,98,-99.99,,,0.00,Acu-Link.com,2013-10-17 03:43:00,
2013-10-16 23:58:00,46.6,46.1,29.84,WNW,292,0.0,-999.0,98,-99.99,,,0.00,Acu-Link.com,2013-10-17 03:58:00,